Ranger, TX

9:53 AM CDT on October 30, 2014 (GMT -0500)
MesoWest OLDEN TX US UPR | Change Station
CLOSE
Current Station
Personal Weather Station
Location: Olden, TX
Elevation: 1563 ft
Nearby Weather Stations

Elev 1563 ft 32.42 °N, 98.76 °W | Updated 1 hour ago

Partly Cloudy
Partly Cloudy
57 °F
Feels Like 57 °F
N
Wind Variable Wind from North
Gusts 0.0 mph

Today
High -- | Low -- °F
--% Chance of Precip.
Yesterday
High -- | Low -- °F
Precip. -- in
7:50 AM 6:46 PM
Waxing Crescent, 44% visible
Pressure 30.14 in
Visibility 10.0 miles
Clouds Clear
Dew Point Not available.
Humidity Not available.
Rainfall -999.00 in
Snow Depth Not available.
UV 1 out of 12
Pollen 4.30 out of 12
Air Quality Not available.
Flu Activity Not available.
METAR KBKD 301435Z AUTO 20010KT 10SM CLR 19/12 A3014 RMK AO2 T01910118

More Conditions Fewer Conditions

Pressure 30.14 in
Visibility 10.0 miles
Clouds Clear
Dew Point Not available.
Humidity Not available.
Rainfall -999.00 in
Snow Depth Not available.
UV 1 out of 12
Pollen 4.30 out of 12
Air Quality Not available.
Flu Activity Not available.
METAR KBKD 301435Z AUTO 20010KT 10SM CLR 19/12 A3014 RMK AO2 T01910118

More Conditions Fewer Conditions

10-Day Weather Forecast

Almanac

Astronomy

Oct. 30, 2014 Rise Set
Actual Time
Civil Twilight
Nautical Twilight
Astronomical Twilight
Moon
Length of Visible Light
Length of Day
Tomorrow will be .
, % of the Moon is Illuminated

Today's Extremes

State Highs State Lows

Community

WunderPhotos

Upload Photos

1,766,379 photos uploaded!

WunderBlogs® & News

Nearby

Air Quality

  Air Quality AQ Index Pollutant
Not available.

Snow Depth

Station Depth Elevation

Earthquake Activity

City Distance Mag. Time & Date
Minimum magnitude displayed is 2.5.

Coastal Water Temperatures

Place Temperature

Nearby Weather Stations